sensor_id;sensor_type;location;lat;lon;timestamp;P1;durP1;ratioP1;P2;durP2;ratioP2
28934;SDS011;16044;52.726;-2.108;2023-01-19T00:00:33;10.95;;;5.45;;
28934;SDS011;16044;52.726;-2.108;2023-01-19T00:03:02;13.10;;;5.35;;
28934;SDS011;16044;52.726;-2.108;2023-01-19T00:05:30;10.27;;;5.07;;
28934;SDS011;16044;52.726;-2.108;2023-01-19T00:07:59;16.20;;;5.63;;
28934;SDS011;16044;52.726;-2.108;2023-01-19T00:10:41;17.90;;;5.93;;
28934;SDS011;16044;52.726;-2.108;2023-01-19T00:13:16;17.35;;;6.95;;
28934;SDS011;16044;52.726;-2.108;2023-01-19T00:15:43;15.15;;;6.30;;
28934;SDS011;16044;52.726;-2.108;2023-01-19T00:18:10;18.80;;;6.82;;
28934;SDS011;16044;52.726;-2.108;2023-01-19T00:20:38;18.13;;;6.57;;
28934;SDS011;16044;52.726;-2.108;2023-01-19T00:23:06;12.48;;;5.50;;
28934;SDS011;16044;52.726;-2.108;2023-01-19T00:25:34;13.68;;;5.43;;
28934;SDS011;16044;52.726;-2.108;2023-01-19T00:28:11;15.40;;;6.47;;
28934;SDS011;16044;52.726;-2.108;2023-01-19T00:30:42;18.30;;;6.57;;
28934;SDS011;16044;52.726;-2.108;2023-01-19T00:33:10;13.57;;;6.00;;
28934;SDS011;16044;52.726;-2.108;2023-01-19T00:35:41;13.77;;;5.18;;
28934;SDS011;16044;52.726;-2.108;2023-01-19T00:38:09;24.55;;;6.50;;
28934;SDS011;16044;52.726;-2.108;2023-01-19T00:40:37;12.73;;;5.20;;
28934;SDS011;16044;52.726;-2.108;2023-01-19T00:43:04;18.10;;;6.15;;
28934;SDS011;16044;52.726;-2.108;2023-01-19T00:45:31;16.23;;;5.40;;
28934;SDS011;16044;52.726;-2.108;2023-01-19T00:47:59;13.98;;;5.30;;
28934;SDS011;16044;52.726;-2.108;2023-01-19T00:50:27;17.98;;;6.35;;
28934;SDS011;16044;52.726;-2.108;2023-01-19T00:52:55;12.05;;;5.75;;
28934;SDS011;16044;52.726;-2.108;2023-01-19T00:55:26;13.02;;;5.63;;
28934;SDS011;16044;52.726;-2.108;2023-01-19T00:57:55;15.35;;;5.78;;
28934;SDS011;16044;52.726;-2.108;2023-01-19T01:00:22;11.82;;;5.00;;
28934;SDS011;16044;52.726;-2.108;2023-01-19T01:02:50;13.73;;;4.97;;
28934;SDS011;16044;52.726;-2.108;2023-01-19T01:05:19;14.45;;;4.75;;
28934;SDS011;16044;52.726;-2.108;2023-01-19T01:07:46;16.48;;;4.22;;
28934;SDS011;16044;52.726;-2.108;2023-01-19T01:10:16;11.00;;;3.90;;
28934;SDS011;16044;52.726;-2.108;2023-01-19T01:12:52;16.67;;;4.40;;
28934;SDS011;16044;52.726;-2.108;2023-01-19T01:15:25;13.52;;;4.13;;
28934;SDS011;16044;52.726;-2.108;2023-01-19T01:17:53;13.25;;;4.00;;
28934;SDS011;16044;52.726;-2.108;2023-01-19T01:20:22;16.73;;;4.57;;
28934;SDS011;16044;52.726;-2.108;2023-01-19T01:22:53;13.90;;;3.63;;
28934;SDS011;16044;52.726;-2.108;2023-01-19T01:25:23;10.50;;;3.70;;
28934;SDS011;16044;52.726;-2.108;2023-01-19T01:27:52;12.25;;;4.13;;
28934;SDS011;16044;52.726;-2.108;2023-01-19T01:30:20;10.18;;;3.35;;
28934;SDS011;16044;52.726;-2.108;2023-01-19T01:32:48;11.55;;;3.60;;
28934;SDS011;16044;52.726;-2.108;2023-01-19T01:35:15;12.23;;;3.28;;
28934;SDS011;16044;52.726;-2.108;2023-01-19T01:37:42;14.52;;;3.30;;
28934;SDS011;16044;52.726;-2.108;2023-01-19T01:40:10;10.13;;;3.22;;
28934;SDS011;16044;52.726;-2.108;2023-01-19T01:42:40;11.90;;;3.38;;
28934;SDS011;16044;52.726;-2.108;2023-01-19T01:48:20;11.63;;;3.22;;
28934;SDS011;16044;52.726;-2.108;2023-01-19T01:50:56;13.45;;;3.40;;
28934;SDS011;16044;52.726;-2.108;2023-01-19T01:53:48;9.37;;;3.40;;
28934;SDS011;16044;52.726;-2.108;2023-01-19T01:56:43;15.93;;;3.85;;
28934;SDS011;16044;52.726;-2.108;2023-01-19T01:59:14;11.18;;;3.00;;
28934;SDS011;16044;52.726;-2.108;2023-01-19T02:01:57;7.50;;;2.75;;
28934;SDS011;16044;52.726;-2.108;2023-01-19T02:05:01;10.63;;;3.13;;
28934;SDS011;16044;52.726;-2.108;2023-01-19T02:07:41;9.57;;;2.60;;
28934;SDS011;16044;52.726;-2.108;2023-01-19T02:10:32;6.75;;;2.35;;
28934;SDS011;16044;52.726;-2.108;2023-01-19T02:13:19;8.38;;;2.60;;
28934;SDS011;16044;52.726;-2.108;2023-01-19T02:18:22;10.65;;;2.83;;
28934;SDS011;16044;52.726;-2.108;2023-01-19T02:23:39;15.82;;;2.78;;
28934;SDS011;16044;52.726;-2.108;2023-01-19T02:26:41;11.00;;;2.30;;
28934;SDS011;16044;52.726;-2.108;2023-01-19T02:29:09;13.25;;;2.53;;
28934;SDS011;16044;52.726;-2.108;2023-01-19T02:31:48;8.27;;;2.17;;
28934;SDS011;16044;52.726;-2.108;2023-01-19T02:34:16;15.45;;;2.80;;
28934;SDS011;16044;52.726;-2.108;2023-01-19T02:39:32;17.33;;;3.20;;
28934;SDS011;16044;52.726;-2.108;2023-01-19T02:44:55;10.82;;;2.28;;
28934;SDS011;16044;52.726;-2.108;2023-01-19T02:47:22;6.82;;;1.83;;
28934;SDS011;16044;52.726;-2.108;2023-01-19T02:49:56;7.97;;;1.40;;
28934;SDS011;16044;52.726;-2.108;2023-01-19T02:52:25;10.90;;;1.80;;
28934;SDS011;16044;52.726;-2.108;2023-01-19T02:55:13;12.95;;;1.45;;
28934;SDS011;16044;52.726;-2.108;2023-01-19T02:57:59;5.18;;;1.00;;
28934;SDS011;16044;52.726;-2.108;2023-01-19T03:00:36;12.07;;;1.30;;
28934;SDS011;16044;52.726;-2.108;2023-01-19T03:09:11;9.38;;;1.67;;
28934;SDS011;16044;52.726;-2.108;2023-01-19T03:11:59;10.63;;;1.70;;
28934;SDS011;16044;52.726;-2.108;2023-01-19T03:14:57;8.75;;;1.98;;
28934;SDS011;16044;52.726;-2.108;2023-01-19T03:17:31;9.07;;;2.38;;
28934;SDS011;16044;52.726;-2.108;2023-01-19T03:19:59;11.60;;;2.15;;
28934;SDS011;16044;52.726;-2.108;2023-01-19T03:22:29;12.20;;;1.92;;
28934;SDS011;16044;52.726;-2.108;2023-01-19T03:24:58;8.38;;;2.00;;
28934;SDS011;16044;52.726;-2.108;2023-01-19T03:27:28;8.45;;;1.85;;
28934;SDS011;16044;52.726;-2.108;2023-01-19T03:30:04;7.35;;;1.90;;
28934;SDS011;16044;52.726;-2.108;2023-01-19T03:32:38;10.05;;;2.40;;
28934;SDS011;16044;52.726;-2.108;2023-01-19T03:35:11;10.15;;;2.00;;
28934;SDS011;16044;52.726;-2.108;2023-01-19T03:37:41;11.88;;;2.25;;
28934;SDS011;16044;52.726;-2.108;2023-01-19T03:40:11;18.58;;;3.25;;
28934;SDS011;16044;52.726;-2.108;2023-01-19T03:42:39;11.70;;;2.70;;
28934;SDS011;16044;52.726;-2.108;2023-01-19T03:45:06;10.60;;;2.90;;
28934;SDS011;16044;52.726;-2.108;2023-01-19T03:47:34;14.00;;;2.85;;
28934;SDS011;16044;52.726;-2.108;2023-01-19T03:50:02;15.15;;;3.33;;
28934;SDS011;16044;52.726;-2.108;2023-01-19T03:52:35;11.18;;;3.00;;
28934;SDS011;16044;52.726;-2.108;2023-01-19T03:55:03;11.43;;;2.97;;
28934;SDS011;16044;52.726;-2.108;2023-01-19T03:57:31;15.77;;;3.33;;
28934;SDS011;16044;52.726;-2.108;2023-01-19T03:59:58;12.23;;;2.90;;
28934;SDS011;16044;52.726;-2.108;2023-01-19T04:02:25;12.52;;;3.05;;
28934;SDS011;16044;52.726;-2.108;2023-01-19T04:04:52;11.77;;;3.22;;
28934;SDS011;16044;52.726;-2.108;2023-01-19T04:07:19;12.38;;;3.38;;
28934;SDS011;16044;52.726;-2.108;2023-01-19T04:09:46;13.10;;;2.97;;
28934;SDS011;16044;52.726;-2.108;2023-01-19T04:12:13;13.48;;;3.63;;
28934;SDS011;16044;52.726;-2.108;2023-01-19T04:14:39;13.93;;;3.85;;
28934;SDS011;16044;52.726;-2.108;2023-01-19T04:17:06;16.05;;;3.83;;
28934;SDS011;16044;52.726;-2.108;2023-01-19T04:19:34;14.02;;;3.85;;
28934;SDS011;16044;52.726;-2.108;2023-01-19T04:22:01;13.27;;;3.15;;
28934;SDS011;16044;52.726;-2.108;2023-01-19T04:24:28;10.63;;;3.30;;
28934;SDS011;16044;52.726;-2.108;2023-01-19T04:26:55;16.13;;;2.92;;
28934;SDS011;16044;52.726;-2.108;2023-01-19T04:29:22;19.10;;;3.25;;
28934;SDS011;16044;52.726;-2.108;2023-01-19T04:31:49;15.43;;;3.00;;
28934;SDS011;16044;52.726;-2.108;2023-01-19T04:34:16;12.13;;;3.17;;
28934;SDS011;16044;52.726;-2.108;2023-01-19T04:36:43;14.65;;;3.97;;
28934;SDS011;16044;52.726;-2.108;2023-01-19T04:39:11;13.52;;;3.53;;
28934;SDS011;16044;52.726;-2.108;2023-01-19T04:41:38;10.95;;;2.97;;
28934;SDS011;16044;52.726;-2.108;2023-01-19T04:44:05;13.43;;;3.30;;
28934;SDS011;16044;52.726;-2.108;2023-01-19T04:46:32;10.82;;;3.50;;
28934;SDS011;16044;52.726;-2.108;2023-01-19T04:48:59;17.17;;;3.97;;
28934;SDS011;16044;52.726;-2.108;2023-01-19T04:51:25;13.30;;;3.38;;
28934;SDS011;16044;52.726;-2.108;2023-01-19T04:53:54;13.45;;;3.67;;
28934;SDS011;16044;52.726;-2.108;2023-01-19T04:56:20;15.73;;;3.95;;
28934;SDS011;16044;52.726;-2.108;2023-01-19T04:58:48;10.38;;;3.72;;
28934;SDS011;16044;52.726;-2.108;2023-01-19T05:01:14;13.82;;;3.80;;
28934;SDS011;16044;52.726;-2.108;2023-01-19T05:03:41;12.40;;;3.70;;
28934;SDS011;16044;52.726;-2.108;2023-01-19T05:06:08;12.50;;;4.13;;
28934;SDS011;16044;52.726;-2.108;2023-01-19T05:08:35;12.45;;;3.70;;
28934;SDS011;16044;52.726;-2.108;2023-01-19T05:11:02;14.43;;;4.40;;
28934;SDS011;16044;52.726;-2.108;2023-01-19T05:13:29;13.55;;;4.10;;
28934;SDS011;16044;52.726;-2.108;2023-01-19T05:15:55;12.20;;;3.95;;
28934;SDS011;16044;52.726;-2.108;2023-01-19T05:18:22;13.50;;;3.90;;
28934;SDS011;16044;52.726;-2.108;2023-01-19T05:20:49;13.13;;;3.63;;
28934;SDS011;16044;52.726;-2.108;2023-01-19T05:23:16;14.10;;;3.95;;
28934;SDS011;16044;52.726;-2.108;2023-01-19T05:25:43;14.52;;;4.32;;
28934;SDS011;16044;52.726;-2.108;2023-01-19T05:28:10;12.18;;;3.65;;
28934;SDS011;16044;52.726;-2.108;2023-01-19T05:30:37;13.65;;;3.85;;
28934;SDS011;16044;52.726;-2.108;2023-01-19T05:33:04;13.85;;;4.25;;
28934;SDS011;16044;52.726;-2.108;2023-01-19T05:35:31;11.38;;;4.15;;
28934;SDS011;16044;52.726;-2.108;2023-01-19T05:38:01;11.65;;;3.70;;
28934;SDS011;16044;52.726;-2.108;2023-01-19T05:40:29;10.23;;;3.97;;
28934;SDS011;16044;52.726;-2.108;2023-01-19T05:42:56;9.00;;;3.90;;
28934;SDS011;16044;52.726;-2.108;2023-01-19T05:45:26;19.55;;;4.80;;
28934;SDS011;16044;52.726;-2.108;2023-01-19T05:47:53;13.40;;;4.30;;
28934;SDS011;16044;52.726;-2.108;2023-01-19T05:50:21;10.88;;;5.18;;
28934;SDS011;16044;52.726;-2.108;2023-01-19T05:52:48;19.65;;;5.03;;
28934;SDS011;16044;52.726;-2.108;2023-01-19T05:55:15;13.55;;;4.47;;
28934;SDS011;16044;52.726;-2.108;2023-01-19T05:57:42;11.15;;;4.53;;
28934;SDS011;16044;52.726;-2.108;2023-01-19T06:00:09;15.38;;;5.35;;
28934;SDS011;16044;52.726;-2.108;2023-01-19T06:02:37;10.40;;;4.40;;
28934;SDS011;16044;52.726;-2.108;2023-01-19T06:05:04;19.38;;;4.93;;
28934;SDS011;16044;52.726;-2.108;2023-01-19T06:07:31;9.85;;;4.80;;
28934;SDS011;16044;52.726;-2.108;2023-01-19T06:09:58;11.55;;;5.05;;
28934;SDS011;16044;52.726;-2.108;2023-01-19T06:12:25;14.40;;;5.13;;
28934;SDS011;16044;52.726;-2.108;2023-01-19T06:14:52;11.65;;;4.88;;
28934;SDS011;16044;52.726;-2.108;2023-01-19T06:17:19;16.00;;;5.32;;
28934;SDS011;16044;52.726;-2.108;2023-01-19T06:19:46;13.73;;;4.72;;
28934;SDS011;16044;52.726;-2.108;2023-01-19T06:22:12;15.75;;;4.95;;
28934;SDS011;16044;52.726;-2.108;2023-01-19T06:24:42;11.55;;;5.00;;
28934;SDS011;16044;52.726;-2.108;2023-01-19T06:27:09;12.73;;;6.38;;
28934;SDS011;16044;52.726;-2.108;2023-01-19T06:29:36;12.95;;;5.38;;
28934;SDS011;16044;52.726;-2.108;2023-01-19T06:32:04;13.23;;;5.60;;
28934;SDS011;16044;52.726;-2.108;2023-01-19T06:34:31;13.43;;;5.38;;
28934;SDS011;16044;52.726;-2.108;2023-01-19T06:36:58;13.05;;;5.38;;
28934;SDS011;16044;52.726;-2.108;2023-01-19T06:39:25;24.40;;;6.57;;
28934;SDS011;16044;52.726;-2.108;2023-01-19T06:41:52;18.65;;;6.28;;
28934;SDS011;16044;52.726;-2.108;2023-01-19T06:44:19;23.17;;;9.35;;
28934;SDS011;16044;52.726;-2.108;2023-01-19T06:46:46;17.25;;;6.53;;
28934;SDS011;16044;52.726;-2.108;2023-01-19T06:49:14;21.60;;;8.85;;
28934;SDS011;16044;52.726;-2.108;2023-01-19T06:51:41;19.95;;;7.03;;
28934;SDS011;16044;52.726;-2.108;2023-01-19T06:54:08;23.63;;;7.53;;
28934;SDS011;16044;52.726;-2.108;2023-01-19T06:56:35;19.42;;;8.23;;
28934;SDS011;16044;52.726;-2.108;2023-01-19T06:59:02;20.25;;;7.72;;
28934;SDS011;16044;52.726;-2.108;2023-01-19T07:01:29;17.13;;;7.65;;
28934;SDS011;16044;52.726;-2.108;2023-01-19T07:03:58;18.70;;;7.68;;
28934;SDS011;16044;52.726;-2.108;2023-01-19T07:06:25;20.88;;;7.80;;
28934;SDS011;16044;52.726;-2.108;2023-01-19T07:08:52;20.13;;;7.75;;
28934;SDS011;16044;52.726;-2.108;2023-01-19T07:11:20;21.80;;;8.35;;
28934;SDS011;16044;52.726;-2.108;2023-01-19T07:13:58;25.10;;;8.50;;
28934;SDS011;16044;52.726;-2.108;2023-01-19T07:16:25;14.18;;;6.20;;
28934;SDS011;16044;52.726;-2.108;2023-01-19T07:18:52;26.45;;;8.05;;
28934;SDS011;16044;52.726;-2.108;2023-01-19T07:21:19;21.33;;;7.15;;
28934;SDS011;16044;52.726;-2.108;2023-01-19T07:23:47;16.17;;;5.47;;
28934;SDS011;16044;52.726;-2.108;2023-01-19T07:26:15;19.38;;;6.63;;
28934;SDS011;16044;52.726;-2.108;2023-01-19T07:28:47;17.35;;;6.68;;
28934;SDS011;16044;52.726;-2.108;2023-01-19T07:31:14;17.23;;;6.43;;
28934;SDS011;16044;52.726;-2.108;2023-01-19T07:33:42;28.02;;;9.13;;
28934;SDS011;16044;52.726;-2.108;2023-01-19T07:36:09;22.40;;;9.52;;
28934;SDS011;16044;52.726;-2.108;2023-01-19T07:38:36;24.40;;;9.35;;
28934;SDS011;16044;52.726;-2.108;2023-01-19T07:41:04;24.85;;;9.10;;
28934;SDS011;16044;52.726;-2.108;2023-01-19T07:43:33;24.85;;;9.40;;
28934;SDS011;16044;52.726;-2.108;2023-01-19T07:46:01;28.48;;;9.32;;
28934;SDS011;16044;52.726;-2.108;2023-01-19T07:48:31;20.58;;;8.10;;
28934;SDS011;16044;52.726;-2.108;2023-01-19T07:51:01;25.23;;;8.55;;
28934;SDS011;16044;52.726;-2.108;2023-01-19T07:53:48;26.88;;;9.55;;
28934;SDS011;16044;52.726;-2.108;2023-01-19T07:56:16;28.42;;;10.93;;
28934;SDS011;16044;52.726;-2.108;2023-01-19T07:58:43;27.67;;;10.02;;
28934;SDS011;16044;52.726;-2.108;2023-01-19T08:01:10;20.05;;;8.68;;
28934;SDS011;16044;52.726;-2.108;2023-01-19T08:03:38;20.48;;;8.35;;
28934;SDS011;16044;52.726;-2.108;2023-01-19T08:06:05;26.15;;;9.13;;
28934;SDS011;16044;52.726;-2.108;2023-01-19T08:08:33;28.27;;;8.45;;
28934;SDS011;16044;52.726;-2.108;2023-01-19T08:11:00;26.67;;;10.88;;
28934;SDS011;16044;52.726;-2.108;2023-01-19T08:13:27;36.33;;;13.60;;
28934;SDS011;16044;52.726;-2.108;2023-01-19T08:15:53;39.47;;;15.82;;
28934;SDS011;16044;52.726;-2.108;2023-01-19T08:18:21;38.95;;;14.05;;
28934;SDS011;16044;52.726;-2.108;2023-01-19T08:20:48;42.22;;;15.57;;
28934;SDS011;16044;52.726;-2.108;2023-01-19T08:23:15;35.33;;;15.18;;
28934;SDS011;16044;52.726;-2.108;2023-01-19T08:25:43;39.72;;;14.85;;
28934;SDS011;16044;52.726;-2.108;2023-01-19T08:28:12;27.42;;;8.93;;
28934;SDS011;16044;52.726;-2.108;2023-01-19T08:30:41;28.98;;;8.18;;
28934;SDS011;16044;52.726;-2.108;2023-01-19T08:33:11;22.67;;;7.28;;
28934;SDS011;16044;52.726;-2.108;2023-01-19T08:35:39;19.05;;;7.22;;
28934;SDS011;16044;52.726;-2.108;2023-01-19T08:38:14;22.52;;;7.03;;
28934;SDS011;16044;52.726;-2.108;2023-01-19T08:40:42;20.17;;;6.80;;
28934;SDS011;16044;52.726;-2.108;2023-01-19T08:43:12;20.85;;;7.10;;
28934;SDS011;16044;52.726;-2.108;2023-01-19T08:45:43;18.00;;;6.07;;
28934;SDS011;16044;52.726;-2.108;2023-01-19T08:48:14;29.98;;;11.07;;
28934;SDS011;16044;52.726;-2.108;2023-01-19T08:50:45;34.38;;;16.48;;
28934;SDS011;16044;52.726;-2.108;2023-01-19T08:53:13;34.95;;;15.75;;
28934;SDS011;16044;52.726;-2.108;2023-01-19T08:55:41;21.20;;;9.43;;
28934;SDS011;16044;52.726;-2.108;2023-01-19T08:58:08;18.38;;;7.90;;
28934;SDS011;16044;52.726;-2.108;2023-01-19T09:00:36;17.63;;;7.28;;
28934;SDS011;16044;52.726;-2.108;2023-01-19T09:03:05;23.33;;;7.32;;
28934;SDS011;16044;52.726;-2.108;2023-01-19T09:05:35;18.73;;;8.25;;
28934;SDS011;16044;52.726;-2.108;2023-01-19T09:08:05;27.50;;;11.15;;
28934;SDS011;16044;52.726;-2.108;2023-01-19T09:10:42;30.23;;;11.20;;
28934;SDS011;16044;52.726;-2.108;2023-01-19T09:13:12;35.08;;;11.43;;
28934;SDS011;16044;52.726;-2.108;2023-01-19T09:15:41;26.02;;;10.20;;
28934;SDS011;16044;52.726;-2.108;2023-01-19T09:18:11;26.67;;;9.77;;
28934;SDS011;16044;52.726;-2.108;2023-01-19T09:20:43;25.90;;;9.05;;
28934;SDS011;16044;52.726;-2.108;2023-01-19T09:23:14;28.88;;;8.98;;
28934;SDS011;16044;52.726;-2.108;2023-01-19T09:25:45;26.15;;;8.65;;
28934;SDS011;16044;52.726;-2.108;2023-01-19T09:28:14;16.92;;;7.10;;
28934;SDS011;16044;52.726;-2.108;2023-01-19T09:30:43;20.65;;;7.90;;
28934;SDS011;16044;52.726;-2.108;2023-01-19T09:33:12;17.98;;;6.63;;
28934;SDS011;16044;52.726;-2.108;2023-01-19T09:35:42;28.20;;;7.43;;
28934;SDS011;16044;52.726;-2.108;2023-01-19T09:38:12;16.65;;;7.47;;
28934;SDS011;16044;52.726;-2.108;2023-01-19T09:40:46;21.58;;;9.27;;
28934;SDS011;16044;52.726;-2.108;2023-01-19T09:46:11;30.52;;;13.32;;
28934;SDS011;16044;52.726;-2.108;2023-01-19T09:48:52;31.25;;;13.73;;
28934;SDS011;16044;52.726;-2.108;2023-01-19T09:51:25;38.10;;;11.05;;
28934;SDS011;16044;52.726;-2.108;2023-01-19T09:53:56;26.75;;;9.18;;
28934;SDS011;16044;52.726;-2.108;2023-01-19T09:56:45;25.15;;;9.40;;
28934;SDS011;16044;52.726;-2.108;2023-01-19T10:10:13;20.10;;;6.53;;
28934;SDS011;16044;52.726;-2.108;2023-01-19T10:15:54;17.73;;;6.70;;
28934;SDS011;16044;52.726;-2.108;2023-01-19T10:18:48;18.60;;;5.90;;
28934;SDS011;16044;52.726;-2.108;2023-01-19T10:24:03;22.83;;;7.03;;
28934;SDS011;16044;52.726;-2.108;2023-01-19T10:26:41;21.00;;;7.03;;
28934;SDS011;16044;52.726;-2.108;2023-01-19T10:29:27;28.98;;;8.55;;
28934;SDS011;16044;52.726;-2.108;2023-01-19T10:32:03;15.38;;;6.20;;
28934;SDS011;16044;52.726;-2.108;2023-01-19T10:34:39;21.35;;;5.95;;
28934;SDS011;16044;52.726;-2.108;2023-01-19T10:37:50;23.40;;;6.85;;
28934;SDS011;16044;52.726;-2.108;2023-01-19T10:40:01;19.90;;;6.57;;
28934;SDS011;16044;52.726;-2.108;2023-01-19T10:42:51;17.42;;;5.50;;
28934;SDS011;16044;52.726;-2.108;2023-01-19T10:45:20;14.93;;;4.88;;
28934;SDS011;16044;52.726;-2.108;2023-01-19T10:47:51;13.35;;;5.05;;
28934;SDS011;16044;52.726;-2.108;2023-01-19T10:50:25;17.90;;;6.25;;
28934;SDS011;16044;52.726;-2.108;2023-01-19T10:52:57;18.40;;;5.15;;
28934;SDS011;16044;52.726;-2.108;2023-01-19T10:55:31;12.48;;;4.32;;
28934;SDS011;16044;52.726;-2.108;2023-01-19T10:58:04;11.77;;;3.95;;
28934;SDS011;16044;52.726;-2.108;2023-01-19T11:03:04;12.43;;;4.25;;
28934;SDS011;16044;52.726;-2.108;2023-01-19T11:05:57;13.18;;;4.30;;
28934;SDS011;16044;52.726;-2.108;2023-01-19T11:08:44;19.98;;;5.75;;
28934;SDS011;16044;52.726;-2.108;2023-01-19T11:11:13;16.65;;;6.18;;
28934;SDS011;16044;52.726;-2.108;2023-01-19T11:13:40;19.27;;;5.53;;
28934;SDS011;16044;52.726;-2.108;2023-01-19T11:18:55;14.90;;;4.63;;
28934;SDS011;16044;52.726;-2.108;2023-01-19T11:21:23;14.52;;;4.60;;
28934;SDS011;16044;52.726;-2.108;2023-01-19T11:23:57;11.10;;;4.13;;
28934;SDS011;16044;52.726;-2.108;2023-01-19T11:29:17;13.68;;;4.43;;
28934;SDS011;16044;52.726;-2.108;2023-01-19T11:31:48;15.93;;;5.75;;
28934;SDS011;16044;52.726;-2.108;2023-01-19T11:34:21;23.73;;;8.27;;
28934;SDS011;16044;52.726;-2.108;2023-01-19T11:39:45;21.35;;;5.38;;
28934;SDS011;16044;52.726;-2.108;2023-01-19T11:42:18;18.20;;;6.00;;
28934;SDS011;16044;52.726;-2.108;2023-01-19T11:44:49;18.65;;;5.70;;
28934;SDS011;16044;52.726;-2.108;2023-01-19T11:47:34;19.70;;;5.43;;
28934;SDS011;16044;52.726;-2.108;2023-01-19T11:50:13;14.45;;;5.18;;
28934;SDS011;16044;52.726;-2.108;2023-01-19T11:53:13;16.63;;;4.00;;
28934;SDS011;16044;52.726;-2.108;2023-01-19T11:56:12;12.07;;;3.30;;
28934;SDS011;16044;52.726;-2.108;2023-01-19T11:58:41;15.95;;;4.15;;
28934;SDS011;16044;52.726;-2.108;2023-01-19T12:03:51;17.60;;;5.00;;
28934;SDS011;16044;52.726;-2.108;2023-01-19T12:06:25;13.32;;;5.13;;
28934;SDS011;16044;52.726;-2.108;2023-01-19T12:08:58;12.68;;;5.00;;
28934;SDS011;16044;52.726;-2.108;2023-01-19T12:11:43;13.25;;;4.78;;
28934;SDS011;16044;52.726;-2.108;2023-01-19T12:14:18;17.67;;;5.53;;
28934;SDS011;16044;52.726;-2.108;2023-01-19T12:16:56;22.85;;;7.25;;
28934;SDS011;16044;52.726;-2.108;2023-01-19T12:19:34;12.82;;;5.60;;
28934;SDS011;16044;52.726;-2.108;2023-01-19T12:22:15;16.40;;;5.75;;
28934;SDS011;16044;52.726;-2.108;2023-01-19T12:25:28;18.10;;;5.70;;
28934;SDS011;16044;52.726;-2.108;2023-01-19T12:27:47;17.98;;;4.55;;
28934;SDS011;16044;52.726;-2.108;2023-01-19T12:30:18;14.13;;;5.00;;
28934;SDS011;16044;52.726;-2.108;2023-01-19T12:32:49;14.52;;;4.63;;
28934;SDS011;16044;52.726;-2.108;2023-01-19T12:46:41;10.52;;;4.05;;
28934;SDS011;16044;52.726;-2.108;2023-01-19T13:00:44;10.35;;;3.30;;
28934;SDS011;16044;52.726;-2.108;2023-01-19T13:05:54;10.15;;;3.15;;
28934;SDS011;16044;52.726;-2.108;2023-01-19T13:08:23;12.73;;;3.15;;
28934;SDS011;16044;52.726;-2.108;2023-01-19T13:13:26;17.67;;;4.82;;
28934;SDS011;16044;52.726;-2.108;2023-01-19T13:15:58;11.57;;;3.90;;
28934;SDS011;16044;52.726;-2.108;2023-01-19T13:18:54;12.93;;;3.17;;
28934;SDS011;16044;52.726;-2.108;2023-01-19T13:24:16;9.10;;;2.92;;
28934;SDS011;16044;52.726;-2.108;2023-01-19T13:29:39;13.32;;;3.00;;
28934;SDS011;16044;52.726;-2.108;2023-01-19T13:32:14;13.85;;;2.60;;
28934;SDS011;16044;52.726;-2.108;2023-01-19T13:34:45;13.30;;;3.65;;
28934;SDS011;16044;52.726;-2.108;2023-01-19T13:37:18;11.00;;;3.45;;
28934;SDS011;16044;52.726;-2.108;2023-01-19T13:39:48;8.38;;;3.22;;
28934;SDS011;16044;52.726;-2.108;2023-01-19T13:42:40;11.82;;;3.65;;
28934;SDS011;16044;52.726;-2.108;2023-01-19T13:45:27;10.50;;;3.40;;
28934;SDS011;16044;52.726;-2.108;2023-01-19T13:48:05;13.35;;;3.92;;
28934;SDS011;16044;52.726;-2.108;2023-01-19T13:50:38;13.40;;;3.42;;
28934;SDS011;16044;52.726;-2.108;2023-01-19T13:53:18;12.60;;;3.58;;
28934;SDS011;16044;52.726;-2.108;2023-01-19T13:55:46;11.43;;;3.03;;
28934;SDS011;16044;52.726;-2.108;2023-01-19T13:58:20;12.23;;;2.60;;
28934;SDS011;16044;52.726;-2.108;2023-01-19T14:00:48;7.47;;;2.10;;
28934;SDS011;16044;52.726;-2.108;2023-01-19T14:03:17;13.20;;;3.15;;
28934;SDS011;16044;52.726;-2.108;2023-01-19T14:05:52;15.73;;;3.08;;
28934;SDS011;16044;52.726;-2.108;2023-01-19T14:08:20;9.38;;;2.70;;
28934;SDS011;16044;52.726;-2.108;2023-01-19T14:13:26;12.65;;;2.63;;
28934;SDS011;16044;52.726;-2.108;2023-01-19T14:16:06;11.15;;;2.50;;
28934;SDS011;16044;52.726;-2.108;2023-01-19T14:18:40;8.23;;;2.10;;
28934;SDS011;16044;52.726;-2.108;2023-01-19T14:21:11;11.35;;;3.38;;
28934;SDS011;16044;52.726;-2.108;2023-01-19T14:23:41;12.43;;;3.40;;
28934;SDS011;16044;52.726;-2.108;2023-01-19T14:37:27;11.60;;;3.90;;
28934;SDS011;16044;52.726;-2.108;2023-01-19T14:42:34;10.52;;;2.88;;
28934;SDS011;16044;52.726;-2.108;2023-01-19T14:45:21;12.90;;;3.17;;
28934;SDS011;16044;52.726;-2.108;2023-01-19T14:48:04;12.05;;;2.83;;
28934;SDS011;16044;52.726;-2.108;2023-01-19T14:50:43;11.23;;;3.15;;
28934;SDS011;16044;52.726;-2.108;2023-01-19T14:53:27;8.43;;;2.08;;
28934;SDS011;16044;52.726;-2.108;2023-01-19T14:55:59;8.07;;;2.72;;
28934;SDS011;16044;52.726;-2.108;2023-01-19T14:58:31;5.03;;;1.70;;
28934;SDS011;16044;52.726;-2.108;2023-01-19T15:01:00;9.38;;;2.35;;
28934;SDS011;16044;52.726;-2.108;2023-01-19T15:03:27;6.90;;;2.13;;
28934;SDS011;16044;52.726;-2.108;2023-01-19T15:06:17;9.30;;;2.83;;
28934;SDS011;16044;52.726;-2.108;2023-01-19T15:08:45;9.32;;;2.05;;
28934;SDS011;16044;52.726;-2.108;2023-01-19T15:11:23;15.55;;;6.20;;
28934;SDS011;16044;52.726;-2.108;2023-01-19T15:13:57;24.23;;;11.68;;
28934;SDS011;16044;52.726;-2.108;2023-01-19T15:16:25;25.02;;;13.90;;
28934;SDS011;16044;52.726;-2.108;2023-01-19T15:18:54;14.15;;;5.05;;
28934;SDS011;16044;52.726;-2.108;2023-01-19T15:21:21;10.07;;;2.83;;
28934;SDS011;16044;52.726;-2.108;2023-01-19T15:23:51;13.02;;;2.67;;
28934;SDS011;16044;52.726;-2.108;2023-01-19T15:26:23;8.57;;;3.10;;
28934;SDS011;16044;52.726;-2.108;2023-01-19T15:28:52;8.55;;;3.03;;
28934;SDS011;16044;52.726;-2.108;2023-01-19T15:31:21;11.00;;;3.03;;
28934;SDS011;16044;52.726;-2.108;2023-01-19T15:33:51;12.40;;;2.53;;
28934;SDS011;16044;52.726;-2.108;2023-01-19T15:36:20;11.07;;;2.60;;
28934;SDS011;16044;52.726;-2.108;2023-01-19T15:38:47;9.70;;;2.78;;
28934;SDS011;16044;52.726;-2.108;2023-01-19T15:41:20;12.50;;;2.67;;
28934;SDS011;16044;52.726;-2.108;2023-01-19T15:43:50;10.05;;;2.38;;
28934;SDS011;16044;52.726;-2.108;2023-01-19T15:46:18;9.18;;;2.20;;
28934;SDS011;16044;52.726;-2.108;2023-01-19T15:48:47;8.45;;;2.20;;
28934;SDS011;16044;52.726;-2.108;2023-01-19T15:51:15;11.00;;;3.30;;
28934;SDS011;16044;52.726;-2.108;2023-01-19T15:53:45;12.00;;;2.67;;
28934;SDS011;16044;52.726;-2.108;2023-01-19T15:56:13;9.95;;;2.92;;
28934;SDS011;16044;52.726;-2.108;2023-01-19T15:58:42;9.38;;;2.60;;
28934;SDS011;16044;52.726;-2.108;2023-01-19T16:01:13;7.93;;;2.20;;
28934;SDS011;16044;52.726;-2.108;2023-01-19T16:03:43;8.90;;;1.63;;
28934;SDS011;16044;52.726;-2.108;2023-01-19T16:06:10;8.07;;;1.55;;
28934;SDS011;16044;52.726;-2.108;2023-01-19T16:08:39;4.50;;;1.30;;
28934;SDS011;16044;52.726;-2.108;2023-01-19T16:11:06;6.32;;;2.03;;
28934;SDS011;16044;52.726;-2.108;2023-01-19T16:13:39;9.80;;;2.25;;
28934;SDS011;16044;52.726;-2.108;2023-01-19T16:16:17;5.15;;;1.80;;
28934;SDS011;16044;52.726;-2.108;2023-01-19T16:18:47;6.47;;;1.30;;
28934;SDS011;16044;52.726;-2.108;2023-01-19T16:21:15;6.95;;;1.45;;
28934;SDS011;16044;52.726;-2.108;2023-01-19T16:23:42;3.83;;;1.10;;
28934;SDS011;16044;52.726;-2.108;2023-01-19T16:26:26;5.03;;;0.75;;
28934;SDS011;16044;52.726;-2.108;2023-01-19T16:28:57;3.42;;;0.88;;
28934;SDS011;16044;52.726;-2.108;2023-01-19T16:31:35;3.90;;;1.15;;